sensor_id;sensor_type;location;lat;lon;timestamp;P1;durP1;ratioP1;P2;durP2;ratioP2
789;SDS011;378;48.844;9.156;2022-12-07T00:01:23;16.38;;;8.30;;
789;SDS011;378;48.844;9.156;2022-12-07T00:03:53;14.07;;;8.15;;
789;SDS011;378;48.844;9.156;2022-12-07T00:06:22;12.70;;;6.60;;
789;SDS011;378;48.844;9.156;2022-12-07T00:08:49;12.25;;;7.25;;
789;SDS011;378;48.844;9.156;2022-12-07T00:11:16;14.18;;;9.32;;
789;SDS011;378;48.844;9.156;2022-12-07T00:13:45;13.40;;;8.38;;
789;SDS011;378;48.844;9.156;2022-12-07T00:16:13;14.40;;;7.47;;
789;SDS011;378;48.844;9.156;2022-12-07T00:18:42;11.45;;;7.05;;
789;SDS011;378;48.844;9.156;2022-12-07T00:21:11;14.18;;;7.75;;
789;SDS011;378;48.844;9.156;2022-12-07T00:23:39;12.75;;;7.45;;
789;SDS011;378;48.844;9.156;2022-12-07T00:26:08;11.80;;;7.13;;
789;SDS011;378;48.844;9.156;2022-12-07T00:28:36;17.38;;;7.40;;
789;SDS011;378;48.844;9.156;2022-12-07T00:31:03;12.38;;;7.10;;
789;SDS011;378;48.844;9.156;2022-12-07T00:33:31;11.43;;;6.97;;
789;SDS011;378;48.844;9.156;2022-12-07T00:35:59;13.73;;;6.82;;
789;SDS011;378;48.844;9.156;2022-12-07T00:38:28;12.25;;;7.22;;
789;SDS011;378;48.844;9.156;2022-12-07T00:40:59;12.32;;;7.38;;
789;SDS011;378;48.844;9.156;2022-12-07T00:43:27;12.55;;;7.43;;
789;SDS011;378;48.844;9.156;2022-12-07T00:45:55;13.68;;;7.30;;
789;SDS011;378;48.844;9.156;2022-12-07T00:48:22;12.75;;;7.65;;
789;SDS011;378;48.844;9.156;2022-12-07T00:50:49;16.17;;;8.05;;
789;SDS011;378;48.844;9.156;2022-12-07T00:53:17;15.25;;;8.00;;
789;SDS011;378;48.844;9.156;2022-12-07T00:55:46;17.15;;;8.15;;
789;SDS011;378;48.844;9.156;2022-12-07T00:58:13;16.15;;;8.02;;
789;SDS011;378;48.844;9.156;2022-12-07T01:00:41;15.27;;;8.02;;
789;SDS011;378;48.844;9.156;2022-12-07T01:03:09;15.13;;;7.97;;
789;SDS011;378;48.844;9.156;2022-12-07T01:05:37;16.30;;;7.97;;
789;SDS011;378;48.844;9.156;2022-12-07T01:08:04;14.75;;;7.80;;
789;SDS011;378;48.844;9.156;2022-12-07T01:10:32;15.15;;;8.02;;
789;SDS011;378;48.844;9.156;2022-12-07T01:13:00;16.08;;;7.82;;
789;SDS011;378;48.844;9.156;2022-12-07T01:15:27;15.60;;;9.20;;
789;SDS011;378;48.844;9.156;2022-12-07T01:17:54;18.05;;;8.38;;
789;SDS011;378;48.844;9.156;2022-12-07T01:20:21;15.77;;;8.40;;
789;SDS011;378;48.844;9.156;2022-12-07T01:22:48;17.33;;;7.90;;
789;SDS011;378;48.844;9.156;2022-12-07T01:25:15;13.18;;;7.82;;
789;SDS011;378;48.844;9.156;2022-12-07T01:27:42;16.15;;;9.13;;
789;SDS011;378;48.844;9.156;2022-12-07T01:30:11;16.73;;;8.60;;
789;SDS011;378;48.844;9.156;2022-12-07T01:32:38;14.07;;;7.60;;
789;SDS011;378;48.844;9.156;2022-12-07T01:35:06;15.23;;;8.75;;
789;SDS011;378;48.844;9.156;2022-12-07T01:37:33;16.53;;;7.83;;
789;SDS011;378;48.844;9.156;2022-12-07T01:40:02;15.88;;;8.10;;
789;SDS011;378;48.844;9.156;2022-12-07T01:42:29;13.90;;;7.57;;
789;SDS011;378;48.844;9.156;2022-12-07T01:48:06;16.33;;;8.13;;
789;SDS011;378;48.844;9.156;2022-12-07T01:50:36;17.10;;;8.02;;
789;SDS011;378;48.844;9.156;2022-12-07T01:53:05;15.80;;;8.13;;
789;SDS011;378;48.844;9.156;2022-12-07T01:55:34;14.90;;;8.10;;
789;SDS011;378;48.844;9.156;2022-12-07T01:58:06;16.33;;;7.68;;
789;SDS011;378;48.844;9.156;2022-12-07T02:00:33;16.92;;;8.40;;
789;SDS011;378;48.844;9.156;2022-12-07T02:03:02;16.48;;;9.02;;
789;SDS011;378;48.844;9.156;2022-12-07T02:05:33;14.52;;;8.18;;
789;SDS011;378;48.844;9.156;2022-12-07T02:08:03;15.70;;;8.40;;
789;SDS011;378;48.844;9.156;2022-12-07T02:10:30;13.90;;;8.30;;
789;SDS011;378;48.844;9.156;2022-12-07T02:12:59;15.55;;;8.05;;
789;SDS011;378;48.844;9.156;2022-12-07T02:15:31;13.30;;;7.82;;
789;SDS011;378;48.844;9.156;2022-12-07T02:18:07;16.52;;;8.15;;
789;SDS011;378;48.844;9.156;2022-12-07T02:20:42;14.52;;;7.90;;
789;SDS011;378;48.844;9.156;2022-12-07T02:23:29;16.23;;;7.90;;
789;SDS011;378;48.844;9.156;2022-12-07T02:29:13;13.00;;;7.47;;
789;SDS011;378;48.844;9.156;2022-12-07T02:31:49;14.48;;;7.80;;
789;SDS011;378;48.844;9.156;2022-12-07T02:34:22;15.95;;;7.78;;
789;SDS011;378;48.844;9.156;2022-12-07T02:36:56;15.32;;;7.72;;
789;SDS011;378;48.844;9.156;2022-12-07T02:39:29;16.45;;;7.88;;
789;SDS011;378;48.844;9.156;2022-12-07T02:42:00;12.35;;;6.95;;
789;SDS011;378;48.844;9.156;2022-12-07T02:44:35;16.77;;;8.02;;
789;SDS011;378;48.844;9.156;2022-12-07T02:47:03;16.38;;;7.82;;
789;SDS011;378;48.844;9.156;2022-12-07T02:49:33;14.63;;;7.38;;
789;SDS011;378;48.844;9.156;2022-12-07T02:52:01;13.68;;;7.53;;
789;SDS011;378;48.844;9.156;2022-12-07T02:54:29;16.02;;;8.90;;
789;SDS011;378;48.844;9.156;2022-12-07T02:56:56;18.77;;;7.63;;
789;SDS011;378;48.844;9.156;2022-12-07T02:59:30;14.15;;;7.18;;
789;SDS011;378;48.844;9.156;2022-12-07T03:02:15;16.52;;;8.38;;
789;SDS011;378;48.844;9.156;2022-12-07T03:04:50;14.27;;;7.75;;
789;SDS011;378;48.844;9.156;2022-12-07T03:07:26;13.68;;;7.55;;
789;SDS011;378;48.844;9.156;2022-12-07T03:10:00;14.87;;;8.03;;
789;SDS011;378;48.844;9.156;2022-12-07T03:12:35;14.45;;;7.18;;
789;SDS011;378;48.844;9.156;2022-12-07T03:15:11;15.70;;;8.27;;
789;SDS011;378;48.844;9.156;2022-12-07T03:17:41;13.43;;;7.23;;
789;SDS011;378;48.844;9.156;2022-12-07T03:20:11;15.70;;;7.83;;
789;SDS011;378;48.844;9.156;2022-12-07T03:22:41;13.80;;;7.80;;
789;SDS011;378;48.844;9.156;2022-12-07T03:25:11;20.83;;;8.30;;
789;SDS011;378;48.844;9.156;2022-12-07T03:27:43;15.63;;;7.80;;
789;SDS011;378;48.844;9.156;2022-12-07T03:30:17;14.88;;;7.78;;
789;SDS011;378;48.844;9.156;2022-12-07T03:32:45;17.88;;;8.23;;
789;SDS011;378;48.844;9.156;2022-12-07T03:35:17;15.55;;;7.47;;
789;SDS011;378;48.844;9.156;2022-12-07T03:37:48;14.13;;;7.63;;
789;SDS011;378;48.844;9.156;2022-12-07T03:40:19;16.67;;;8.53;;
789;SDS011;378;48.844;9.156;2022-12-07T03:42:50;14.35;;;8.00;;
789;SDS011;378;48.844;9.156;2022-12-07T03:45:20;17.65;;;8.43;;
789;SDS011;378;48.844;9.156;2022-12-07T03:47:53;19.27;;;8.50;;
789;SDS011;378;48.844;9.156;2022-12-07T03:50:29;15.43;;;8.00;;
789;SDS011;378;48.844;9.156;2022-12-07T03:53:02;17.77;;;11.00;;
789;SDS011;378;48.844;9.156;2022-12-07T03:55:35;16.50;;;8.90;;
789;SDS011;378;48.844;9.156;2022-12-07T03:58:06;17.67;;;9.05;;
789;SDS011;378;48.844;9.156;2022-12-07T04:00:36;17.42;;;9.52;;
789;SDS011;378;48.844;9.156;2022-12-07T04:03:04;16.83;;;8.60;;
789;SDS011;378;48.844;9.156;2022-12-07T04:05:31;16.17;;;8.43;;
789;SDS011;378;48.844;9.156;2022-12-07T04:07:58;16.40;;;8.93;;
789;SDS011;378;48.844;9.156;2022-12-07T04:10:24;17.35;;;9.07;;
789;SDS011;378;48.844;9.156;2022-12-07T04:12:51;17.17;;;9.13;;
789;SDS011;378;48.844;9.156;2022-12-07T04:15:18;16.38;;;8.60;;
789;SDS011;378;48.844;9.156;2022-12-07T04:17:46;18.17;;;8.33;;
789;SDS011;378;48.844;9.156;2022-12-07T04:20:13;17.40;;;8.68;;
789;SDS011;378;48.844;9.156;2022-12-07T04:22:40;19.13;;;9.87;;
789;SDS011;378;48.844;9.156;2022-12-07T04:25:07;18.67;;;9.07;;
789;SDS011;378;48.844;9.156;2022-12-07T04:27:34;21.25;;;12.02;;
789;SDS011;378;48.844;9.156;2022-12-07T04:30:01;16.90;;;9.50;;
789;SDS011;378;48.844;9.156;2022-12-07T04:32:28;17.87;;;9.10;;
789;SDS011;378;48.844;9.156;2022-12-07T04:34:56;17.20;;;9.00;;
789;SDS011;378;48.844;9.156;2022-12-07T04:37:23;17.17;;;8.40;;
789;SDS011;378;48.844;9.156;2022-12-07T04:39:50;14.13;;;7.43;;
789;SDS011;378;48.844;9.156;2022-12-07T04:42:17;14.27;;;7.57;;
789;SDS011;378;48.844;9.156;2022-12-07T04:44:44;10.40;;;6.10;;
789;SDS011;378;48.844;9.156;2022-12-07T04:47:11;13.83;;;6.27;;
789;SDS011;378;48.844;9.156;2022-12-07T04:49:38;10.50;;;5.17;;
789;SDS011;378;48.844;9.156;2022-12-07T04:52:06;9.50;;;5.83;;
789;SDS011;378;48.844;9.156;2022-12-07T04:54:33;10.47;;;5.63;;
789;SDS011;378;48.844;9.156;2022-12-07T04:57:00;9.87;;;5.70;;
789;SDS011;378;48.844;9.156;2022-12-07T04:59:26;8.67;;;5.17;;
789;SDS011;378;48.844;9.156;2022-12-07T05:01:53;9.23;;;4.77;;
789;SDS011;378;48.844;9.156;2022-12-07T05:04:20;11.83;;;5.37;;
789;SDS011;378;48.844;9.156;2022-12-07T05:06:47;10.63;;;5.83;;
789;SDS011;378;48.844;9.156;2022-12-07T05:09:15;9.97;;;5.70;;
789;SDS011;378;48.844;9.156;2022-12-07T05:11:42;10.35;;;5.72;;
789;SDS011;378;48.844;9.156;2022-12-07T05:14:11;13.70;;;7.70;;
789;SDS011;378;48.844;9.156;2022-12-07T05:16:39;11.50;;;6.78;;
789;SDS011;378;48.844;9.156;2022-12-07T05:19:07;12.43;;;6.80;;
789;SDS011;378;48.844;9.156;2022-12-07T05:21:35;14.05;;;6.53;;
789;SDS011;378;48.844;9.156;2022-12-07T05:24:02;13.15;;;7.70;;
789;SDS011;378;48.844;9.156;2022-12-07T05:26:31;12.55;;;7.43;;
789;SDS011;378;48.844;9.156;2022-12-07T05:28:59;14.50;;;7.10;;
789;SDS011;378;48.844;9.156;2022-12-07T05:31:26;15.27;;;7.33;;
789;SDS011;378;48.844;9.156;2022-12-07T05:33:54;14.43;;;7.00;;
789;SDS011;378;48.844;9.156;2022-12-07T05:36:21;14.07;;;6.83;;
789;SDS011;378;48.844;9.156;2022-12-07T05:38:49;14.13;;;7.15;;
789;SDS011;378;48.844;9.156;2022-12-07T05:41:16;14.27;;;7.63;;
789;SDS011;378;48.844;9.156;2022-12-07T05:44:03;15.30;;;8.03;;
789;SDS011;378;48.844;9.156;2022-12-07T05:46:30;20.00;;;7.57;;
789;SDS011;378;48.844;9.156;2022-12-07T05:48:57;16.13;;;7.73;;
789;SDS011;378;48.844;9.156;2022-12-07T05:51:24;15.07;;;7.67;;
789;SDS011;378;48.844;9.156;2022-12-07T05:53:51;16.97;;;8.23;;
789;SDS011;378;48.844;9.156;2022-12-07T05:56:18;15.03;;;7.13;;
789;SDS011;378;48.844;9.156;2022-12-07T05:58:45;13.97;;;7.73;;
789;SDS011;378;48.844;9.156;2022-12-07T06:01:30;15.67;;;7.37;;
789;SDS011;378;48.844;9.156;2022-12-07T06:03:57;15.57;;;7.73;;
789;SDS011;378;48.844;9.156;2022-12-07T06:06:24;18.37;;;8.10;;
789;SDS011;378;48.844;9.156;2022-12-07T06:08:51;17.17;;;7.60;;
789;SDS011;378;48.844;9.156;2022-12-07T06:11:18;16.10;;;7.20;;
789;SDS011;378;48.844;9.156;2022-12-07T06:14:02;15.30;;;6.90;;
789;SDS011;378;48.844;9.156;2022-12-07T06:16:30;13.97;;;7.33;;
789;SDS011;378;48.844;9.156;2022-12-07T06:18:57;13.13;;;6.72;;
789;SDS011;378;48.844;9.156;2022-12-07T06:21:24;12.57;;;6.83;;
789;SDS011;378;48.844;9.156;2022-12-07T06:23:51;12.40;;;5.97;;
789;SDS011;378;48.844;9.156;2022-12-07T06:26:18;12.40;;;6.67;;
789;SDS011;378;48.844;9.156;2022-12-07T06:28:45;11.82;;;6.47;;
789;SDS011;378;48.844;9.156;2022-12-07T06:31:12;10.73;;;5.53;;
789;SDS011;378;48.844;9.156;2022-12-07T06:33:41;9.87;;;5.20;;
789;SDS011;378;48.844;9.156;2022-12-07T06:36:08;8.97;;;5.03;;
789;SDS011;378;48.844;9.156;2022-12-07T06:38:35;12.93;;;5.73;;
789;SDS011;378;48.844;9.156;2022-12-07T06:41:02;10.57;;;5.88;;
789;SDS011;378;48.844;9.156;2022-12-07T06:43:29;11.87;;;5.97;;
789;SDS011;378;48.844;9.156;2022-12-07T06:45:56;12.47;;;4.93;;
789;SDS011;378;48.844;9.156;2022-12-07T06:48:23;9.27;;;5.00;;
789;SDS011;378;48.844;9.156;2022-12-07T06:51:00;10.90;;;5.07;;
789;SDS011;378;48.844;9.156;2022-12-07T06:53:27;9.83;;;5.03;;
789;SDS011;378;48.844;9.156;2022-12-07T06:55:54;9.73;;;5.10;;
789;SDS011;378;48.844;9.156;2022-12-07T06:58:21;9.70;;;5.43;;
789;SDS011;378;48.844;9.156;2022-12-07T07:00:48;8.43;;;4.83;;
789;SDS011;378;48.844;9.156;2022-12-07T07:03:15;11.10;;;5.03;;
789;SDS011;378;48.844;9.156;2022-12-07T07:05:42;11.37;;;5.17;;
789;SDS011;378;48.844;9.156;2022-12-07T07:08:11;10.20;;;5.40;;
789;SDS011;378;48.844;9.156;2022-12-07T07:10:39;10.43;;;5.30;;
789;SDS011;378;48.844;9.156;2022-12-07T07:13:06;9.83;;;5.20;;
789;SDS011;378;48.844;9.156;2022-12-07T07:15:33;9.47;;;5.10;;
789;SDS011;378;48.844;9.156;2022-12-07T07:18:00;14.50;;;5.47;;
789;SDS011;378;48.844;9.156;2022-12-07T07:20:28;11.10;;;5.07;;
789;SDS011;378;48.844;9.156;2022-12-07T07:22:55;9.67;;;5.17;;
789;SDS011;378;48.844;9.156;2022-12-07T07:25:23;9.13;;;4.93;;
789;SDS011;378;48.844;9.156;2022-12-07T07:27:50;14.53;;;6.33;;
789;SDS011;378;48.844;9.156;2022-12-07T07:30:17;10.33;;;5.17;;
789;SDS011;378;48.844;9.156;2022-12-07T07:32:44;11.23;;;4.97;;
789;SDS011;378;48.844;9.156;2022-12-07T07:35:10;8.93;;;5.28;;
789;SDS011;378;48.844;9.156;2022-12-07T07:37:39;9.18;;;5.43;;
789;SDS011;378;48.844;9.156;2022-12-07T07:40:06;9.38;;;5.40;;
789;SDS011;378;48.844;9.156;2022-12-07T07:42:35;9.23;;;4.77;;
789;SDS011;378;48.844;9.156;2022-12-07T07:45:02;12.23;;;5.33;;
789;SDS011;378;48.844;9.156;2022-12-07T07:47:29;9.57;;;5.23;;
789;SDS011;378;48.844;9.156;2022-12-07T07:49:56;9.73;;;4.95;;
789;SDS011;378;48.844;9.156;2022-12-07T07:52:23;9.73;;;4.43;;
789;SDS011;378;48.844;9.156;2022-12-07T07:54:50;8.10;;;4.73;;
789;SDS011;378;48.844;9.156;2022-12-07T07:57:17;10.43;;;5.05;;
789;SDS011;378;48.844;9.156;2022-12-07T07:59:45;9.13;;;4.63;;
789;SDS011;378;48.844;9.156;2022-12-07T08:02:13;8.87;;;4.53;;
789;SDS011;378;48.844;9.156;2022-12-07T08:04:41;11.27;;;4.70;;
789;SDS011;378;48.844;9.156;2022-12-07T08:07:08;11.40;;;5.13;;
789;SDS011;378;48.844;9.156;2022-12-07T08:09:34;8.57;;;4.60;;
789;SDS011;378;48.844;9.156;2022-12-07T08:12:01;7.47;;;4.67;;
789;SDS011;378;48.844;9.156;2022-12-07T08:14:28;7.85;;;4.47;;
789;SDS011;378;48.844;9.156;2022-12-07T08:16:56;9.32;;;4.82;;
789;SDS011;378;48.844;9.156;2022-12-07T08:19:23;8.70;;;4.50;;
789;SDS011;378;48.844;9.156;2022-12-07T08:21:50;7.57;;;4.50;;
789;SDS011;378;48.844;9.156;2022-12-07T08:24:17;9.85;;;4.25;;
789;SDS011;378;48.844;9.156;2022-12-07T08:26:44;9.48;;;4.63;;
789;SDS011;378;48.844;9.156;2022-12-07T08:29:11;11.00;;;4.57;;
789;SDS011;378;48.844;9.156;2022-12-07T08:31:38;13.23;;;4.82;;
789;SDS011;378;48.844;9.156;2022-12-07T08:34:06;9.23;;;4.70;;
789;SDS011;378;48.844;9.156;2022-12-07T08:36:33;8.77;;;4.40;;
789;SDS011;378;48.844;9.156;2022-12-07T08:39:02;8.68;;;4.95;;
789;SDS011;378;48.844;9.156;2022-12-07T08:41:29;13.30;;;4.65;;
789;SDS011;378;48.844;9.156;2022-12-07T08:43:56;9.18;;;4.50;;
789;SDS011;378;48.844;9.156;2022-12-07T08:46:24;12.27;;;4.68;;
789;SDS011;378;48.844;9.156;2022-12-07T08:48:54;12.20;;;5.03;;
789;SDS011;378;48.844;9.156;2022-12-07T08:51:25;9.27;;;4.75;;
789;SDS011;378;48.844;9.156;2022-12-07T08:53:52;9.95;;;4.47;;
789;SDS011;378;48.844;9.156;2022-12-07T08:56:21;10.18;;;4.60;;
789;SDS011;378;48.844;9.156;2022-12-07T08:58:48;6.90;;;4.13;;
789;SDS011;378;48.844;9.156;2022-12-07T09:01:15;10.10;;;4.90;;
789;SDS011;378;48.844;9.156;2022-12-07T09:03:42;18.50;;;5.05;;
789;SDS011;378;48.844;9.156;2022-12-07T09:06:09;12.57;;;7.28;;
789;SDS011;378;48.844;9.156;2022-12-07T09:08:38;10.57;;;5.68;;
789;SDS011;378;48.844;9.156;2022-12-07T09:11:08;9.77;;;4.75;;
789;SDS011;378;48.844;9.156;2022-12-07T09:13:35;12.75;;;4.82;;
789;SDS011;378;48.844;9.156;2022-12-07T09:16:02;10.32;;;4.10;;
789;SDS011;378;48.844;9.156;2022-12-07T09:18:29;9.40;;;4.05;;
789;SDS011;378;48.844;9.156;2022-12-07T09:20:55;6.28;;;3.75;;
789;SDS011;378;48.844;9.156;2022-12-07T09:23:22;13.23;;;4.18;;
789;SDS011;378;48.844;9.156;2022-12-07T09:25:51;5.97;;;3.67;;
789;SDS011;378;48.844;9.156;2022-12-07T09:28:18;9.65;;;3.88;;
789;SDS011;378;48.844;9.156;2022-12-07T09:30:45;5.65;;;3.30;;
789;SDS011;378;48.844;9.156;2022-12-07T09:33:13;8.07;;;4.18;;
789;SDS011;378;48.844;9.156;2022-12-07T09:35:43;5.88;;;3.90;;
789;SDS011;378;48.844;9.156;2022-12-07T09:38:11;9.93;;;3.72;;
789;SDS011;378;48.844;9.156;2022-12-07T09:40:38;8.30;;;3.50;;
789;SDS011;378;48.844;9.156;2022-12-07T09:43:10;6.78;;;3.80;;
789;SDS011;378;48.844;9.156;2022-12-07T09:45:39;5.00;;;3.22;;
789;SDS011;378;48.844;9.156;2022-12-07T09:48:08;7.20;;;3.30;;
789;SDS011;378;48.844;9.156;2022-12-07T09:50:42;9.40;;;3.47;;
789;SDS011;378;48.844;9.156;2022-12-07T09:53:12;6.70;;;3.38;;
789;SDS011;378;48.844;9.156;2022-12-07T09:55:42;10.10;;;4.40;;
789;SDS011;378;48.844;9.156;2022-12-07T09:58:12;16.55;;;7.47;;
789;SDS011;378;48.844;9.156;2022-12-07T10:00:45;10.52;;;5.07;;
789;SDS011;378;48.844;9.156;2022-12-07T10:03:12;10.30;;;3.80;;
789;SDS011;378;48.844;9.156;2022-12-07T10:05:40;8.63;;;3.85;;
789;SDS011;378;48.844;9.156;2022-12-07T10:08:10;6.43;;;3.58;;
789;SDS011;378;48.844;9.156;2022-12-07T10:10:38;5.72;;;2.92;;
789;SDS011;378;48.844;9.156;2022-12-07T10:13:06;12.13;;;3.40;;
789;SDS011;378;48.844;9.156;2022-12-07T10:15:43;6.50;;;3.63;;
789;SDS011;378;48.844;9.156;2022-12-07T10:18:20;6.10;;;3.63;;
789;SDS011;378;48.844;9.156;2022-12-07T10:20:59;8.45;;;3.58;;
789;SDS011;378;48.844;9.156;2022-12-07T10:23:58;9.10;;;3.65;;
789;SDS011;378;48.844;9.156;2022-12-07T10:26:29;7.47;;;3.80;;
789;SDS011;378;48.844;9.156;2022-12-07T10:28:58;5.60;;;3.15;;
789;SDS011;378;48.844;9.156;2022-12-07T10:31:28;6.88;;;3.55;;
789;SDS011;378;48.844;9.156;2022-12-07T10:33:56;6.75;;;3.45;;
789;SDS011;378;48.844;9.156;2022-12-07T10:36:25;7.28;;;3.20;;
789;SDS011;378;48.844;9.156;2022-12-07T10:38:53;6.32;;;3.58;;
789;SDS011;378;48.844;9.156;2022-12-07T10:41:26;6.75;;;3.10;;
789;SDS011;378;48.844;9.156;2022-12-07T10:43:55;6.20;;;3.00;;
789;SDS011;378;48.844;9.156;2022-12-07T10:46:30;3.72;;;2.13;;
789;SDS011;378;48.844;9.156;2022-12-07T10:49:21;3.85;;;2.42;;
789;SDS011;378;48.844;9.156;2022-12-07T10:52:13;4.18;;;2.00;;
789;SDS011;378;48.844;9.156;2022-12-07T10:54:48;2.88;;;2.13;;
789;SDS011;378;48.844;9.156;2022-12-07T10:57:32;5.15;;;2.55;;
789;SDS011;378;48.844;9.156;2022-12-07T11:00:18;5.88;;;2.13;;
789;SDS011;378;48.844;9.156;2022-12-07T11:02:54;3.97;;;2.30;;
789;SDS011;378;48.844;9.156;2022-12-07T11:05:38;4.57;;;2.15;;
789;SDS011;378;48.844;9.156;2022-12-07T11:08:13;7.85;;;2.35;;
789;SDS011;378;48.844;9.156;2022-12-07T11:10:48;4.15;;;2.03;;
789;SDS011;378;48.844;9.156;2022-12-07T11:13:26;3.53;;;2.33;;
789;SDS011;378;48.844;9.156;2022-12-07T11:16:01;3.28;;;2.40;;
789;SDS011;378;48.844;9.156;2022-12-07T11:18:37;3.58;;;2.00;;
789;SDS011;378;48.844;9.156;2022-12-07T11:21:13;4.05;;;2.30;;
789;SDS011;378;48.844;9.156;2022-12-07T11:23:48;3.10;;;1.92;;
789;SDS011;378;48.844;9.156;2022-12-07T11:26:25;4.13;;;2.35;;
789;SDS011;378;48.844;9.156;2022-12-07T11:29:11;3.67;;;2.15;;
789;SDS011;378;48.844;9.156;2022-12-07T11:31:52;8.48;;;3.35;;
789;SDS011;378;48.844;9.156;2022-12-07T11:34:35;10.15;;;3.55;;
789;SDS011;378;48.844;9.156;2022-12-07T11:37:10;6.78;;;3.97;;
789;SDS011;378;48.844;9.156;2022-12-07T11:39:41;6.40;;;3.75;;
789;SDS011;378;48.844;9.156;2022-12-07T11:42:14;6.75;;;3.80;;
789;SDS011;378;48.844;9.156;2022-12-07T11:44:48;8.82;;;4.60;;
789;SDS011;378;48.844;9.156;2022-12-07T11:47:20;7.53;;;4.00;;
789;SDS011;378;48.844;9.156;2022-12-07T11:49:54;8.68;;;4.88;;
789;SDS011;378;48.844;9.156;2022-12-07T11:52:29;7.55;;;4.60;;
789;SDS011;378;48.844;9.156;2022-12-07T11:55:03;7.93;;;4.40;;
789;SDS011;378;48.844;9.156;2022-12-07T11:57:42;9.50;;;4.20;;
789;SDS011;378;48.844;9.156;2022-12-07T12:00:17;9.05;;;4.82;;
789;SDS011;378;48.844;9.156;2022-12-07T12:02:46;7.72;;;4.28;;
789;SDS011;378;48.844;9.156;2022-12-07T12:05:20;7.93;;;4.45;;
789;SDS011;378;48.844;9.156;2022-12-07T12:07:49;7.05;;;4.15;;
789;SDS011;378;48.844;9.156;2022-12-07T12:10:26;11.55;;;4.65;;
789;SDS011;378;48.844;9.156;2022-12-07T12:13:09;10.07;;;4.70;;
789;SDS011;378;48.844;9.156;2022-12-07T12:15:58;6.85;;;3.75;;
789;SDS011;378;48.844;9.156;2022-12-07T12:18:39;8.15;;;4.05;;
789;SDS011;378;48.844;9.156;2022-12-07T12:21:17;8.73;;;4.30;;
789;SDS011;378;48.844;9.156;2022-12-07T12:23:47;7.80;;;4.22;;
789;SDS011;378;48.844;9.156;2022-12-07T12:26:21;8.05;;;4.28;;
789;SDS011;378;48.844;9.156;2022-12-07T12:28:51;7.25;;;4.47;;
789;SDS011;378;48.844;9.156;2022-12-07T12:31:31;7.90;;;4.10;;
789;SDS011;378;48.844;9.156;2022-12-07T12:34:10;7.18;;;4.15;;
789;SDS011;378;48.844;9.156;2022-12-07T12:37:07;9.05;;;4.78;;
789;SDS011;378;48.844;9.156;2022-12-07T12:42:57;6.30;;;3.95;;
789;SDS011;378;48.844;9.156;2022-12-07T12:45:25;7.78;;;4.50;;
789;SDS011;378;48.844;9.156;2022-12-07T12:47:53;12.40;;;4.75;;
789;SDS011;378;48.844;9.156;2022-12-07T12:50:25;7.15;;;4.53;;
789;SDS011;378;48.844;9.156;2022-12-07T12:58:35;12.55;;;5.18;;
789;SDS011;378;48.844;9.156;2022-12-07T13:04:24;8.00;;;5.05;;
789;SDS011;378;48.844;9.156;2022-12-07T13:06:55;9.13;;;4.50;;
789;SDS011;378;48.844;9.156;2022-12-07T13:09:23;9.32;;;5.43;;
789;SDS011;378;48.844;9.156;2022-12-07T13:12:00;8.07;;;4.63;;
789;SDS011;378;48.844;9.156;2022-12-07T13:14:40;10.43;;;5.30;;
789;SDS011;378;48.844;9.156;2022-12-07T13:23:20;9.18;;;5.20;;
789;SDS011;378;48.844;9.156;2022-12-07T13:25:59;11.32;;;5.22;;
789;SDS011;378;48.844;9.156;2022-12-07T13:28:35;8.38;;;4.93;;
789;SDS011;378;48.844;9.156;2022-12-07T13:33:58;11.75;;;6.00;;
789;SDS011;378;48.844;9.156;2022-12-07T13:36:27;11.75;;;6.20;;
789;SDS011;378;48.844;9.156;2022-12-07T13:38:58;14.02;;;5.70;;
789;SDS011;378;48.844;9.156;2022-12-07T13:41:26;11.57;;;6.00;;
789;SDS011;378;48.844;9.156;2022-12-07T13:44:02;14.48;;;6.45;;
789;SDS011;378;48.844;9.156;2022-12-07T13:46:43;11.98;;;6.30;;
789;SDS011;378;48.844;9.156;2022-12-07T13:49:16;14.25;;;6.75;;
789;SDS011;378;48.844;9.156;2022-12-07T13:51:46;12.70;;;6.28;;
789;SDS011;378;48.844;9.156;2022-12-07T13:54:14;13.05;;;6.45;;
789;SDS011;378;48.844;9.156;2022-12-07T13:56:42;14.48;;;6.65;;
789;SDS011;378;48.844;9.156;2022-12-07T13:59:18;12.90;;;6.47;;
789;SDS011;378;48.844;9.156;2022-12-07T14:01:47;11.57;;;6.40;;
789;SDS011;378;48.844;9.156;2022-12-07T14:04:18;12.45;;;6.55;;
789;SDS011;378;48.844;9.156;2022-12-07T14:06:53;12.65;;;7.18;;
789;SDS011;378;48.844;9.156;2022-12-07T14:09:22;13.35;;;6.78;;
789;SDS011;378;48.844;9.156;2022-12-07T14:11:51;10.02;;;6.25;;
789;SDS011;378;48.844;9.156;2022-12-07T14:14:21;10.25;;;6.18;;
789;SDS011;378;48.844;9.156;2022-12-07T14:16:56;10.48;;;6.03;;
789;SDS011;378;48.844;9.156;2022-12-07T14:19:44;9.68;;;5.50;;
789;SDS011;378;48.844;9.156;2022-12-07T14:22:25;11.85;;;5.95;;
789;SDS011;378;48.844;9.156;2022-12-07T14:27:48;12.73;;;5.70;;
789;SDS011;378;48.844;9.156;2022-12-07T14:30:21;11.52;;;5.32;;
789;SDS011;378;48.844;9.156;2022-12-07T14:32:50;11.00;;;5.00;;
789;SDS011;378;48.844;9.156;2022-12-07T14:35:19;12.43;;;5.57;;
789;SDS011;378;48.844;9.156;2022-12-07T14:37:47;12.95;;;5.90;;
789;SDS011;378;48.844;9.156;2022-12-07T14:40:15;12.13;;;6.28;;
789;SDS011;378;48.844;9.156;2022-12-07T14:42:45;11.73;;;6.05;;
789;SDS011;378;48.844;9.156;2022-12-07T14:45:15;12.20;;;6.00;;
789;SDS011;378;48.844;9.156;2022-12-07T14:47:43;11.40;;;6.00;;
789;SDS011;378;48.844;9.156;2022-12-07T14:50:11;11.13;;;6.28;;
789;SDS011;378;48.844;9.156;2022-12-07T14:52:39;12.68;;;6.38;;
789;SDS011;378;48.844;9.156;2022-12-07T14:55:12;12.13;;;6.10;;
789;SDS011;378;48.844;9.156;2022-12-07T14:57:42;12.98;;;6.53;;
789;SDS011;378;48.844;9.156;2022-12-07T15:00:14;12.40;;;6.78;;
789;SDS011;378;48.844;9.156;2022-12-07T15:02:43;13.35;;;7.13;;
789;SDS011;378;48.844;9.156;2022-12-07T15:05:10;13.07;;;6.88;;
789;SDS011;378;48.844;9.156;2022-12-07T15:07:38;14.95;;;7.70;;
789;SDS011;378;48.844;9.156;2022-12-07T15:10:09;14.00;;;7.18;;
789;SDS011;378;48.844;9.156;2022-12-07T15:12:42;12.85;;;7.28;;
789;SDS011;378;48.844;9.156;2022-12-07T15:15:09;14.85;;;7.22;;
789;SDS011;378;48.844;9.156;2022-12-07T15:17:38;16.25;;;8.35;;
789;SDS011;378;48.844;9.156;2022-12-07T15:20:05;18.30;;;8.60;;
789;SDS011;378;48.844;9.156;2022-12-07T15:22:34;15.85;;;7.50;;
789;SDS011;378;48.844;9.156;2022-12-07T15:25:01;13.95;;;7.35;;
789;SDS011;378;48.844;9.156;2022-12-07T15:27:29;16.30;;;7.28;;
789;SDS011;378;48.844;9.156;2022-12-07T15:29:56;17.33;;;7.80;;
789;SDS011;378;48.844;9.156;2022-12-07T15:32:23;14.65;;;7.95;;
789;SDS011;378;48.844;9.156;2022-12-07T15:34:51;16.17;;;7.88;;
789;SDS011;378;48.844;9.156;2022-12-07T15:37:18;17.63;;;9.53;;
789;SDS011;378;48.844;9.156;2022-12-07T15:39:45;13.05;;;7.32;;
789;SDS011;378;48.844;9.156;2022-12-07T15:42:12;15.07;;;7.03;;
789;SDS011;378;48.844;9.156;2022-12-07T15:44:39;13.65;;;7.55;;
789;SDS011;378;48.844;9.156;2022-12-07T15:47:24;14.48;;;7.63;;
789;SDS011;378;48.844;9.156;2022-12-07T15:49:53;16.05;;;7.90;;
789;SDS011;378;48.844;9.156;2022-12-07T15:52:20;14.63;;;7.10;;
789;SDS011;378;48.844;9.156;2022-12-07T15:54:47;14.90;;;7.30;;
789;SDS011;378;48.844;9.156;2022-12-07T15:57:14;15.27;;;7.45;;
789;SDS011;378;48.844;9.156;2022-12-07T15:59:41;16.30;;;7.32;;
789;SDS011;378;48.844;9.156;2022-12-07T16:02:08;15.50;;;7.88;;
789;SDS011;378;48.844;9.156;2022-12-07T16:04:36;15.60;;;7.63;;
789;SDS011;378;48.844;9.156;2022-12-07T16:07:04;13.70;;;7.45;;
789;SDS011;378;48.844;9.156;2022-12-07T16:09:31;17.15;;;7.70;;
789;SDS011;378;48.844;9.156;2022-12-07T16:11:58;20.10;;;9.45;;
789;SDS011;378;48.844;9.156;2022-12-07T16:14:25;15.75;;;7.65;;
789;SDS011;378;48.844;9.156;2022-12-07T16:16:51;16.10;;;7.47;;
789;SDS011;378;48.844;9.156;2022-12-07T16:19:18;16.83;;;8.73;;
789;SDS011;378;48.844;9.156;2022-12-07T16:21:45;15.95;;;7.78;;
789;SDS011;378;48.844;9.156;2022-12-07T16:24:13;20.25;;;8.85;;